Time;durP1;ratioP1;P1;durP2;ratioP2;P2;SDS_P1;SDS_P2;PMS_P1;PMS_P2;Temp;Humidity;BMP_temperature;BMP_pressure;BME280_temperature;BME280_humidity;BME280_pressure;Samples;Min_cycle;Max_cycle;Signal;HPM_P1;HPM_P2
2023/05/27 00:00:07;;;;;;;13.45;2.63;;;10.30;99.90;;;;;;5136757;27;20043;-75
2023/05/27 00:02:33;;;;;;;11.43;3.42;;;10.20;99.90;;;;;;5136625;27;20116;-75
2023/05/27 00:04:59;;;;;;;18.95;4.70;;;10.20;99.90;;;;;;5137792;27;20534;-75
2023/05/27 00:07:28;;;;;;;14.93;3.15;;;10.20;99.90;;;;;;5137848;27;20084;-75
2023/05/27 00:09:54;;;;;;;13.90;3.42;;;10.20;99.90;;;;;;5136504;27;20482;-75
2023/05/27 00:12:20;;;;;;;10.50;2.25;;;10.20;99.90;;;;;;5136312;27;20039;-75
2023/05/27 00:14:46;;;;;;;13.90;2.70;;;10.20;99.90;;;;;;5136315;27;20047;-74
2023/05/27 00:17:13;;;;;;;13.90;4.10;;;10.20;99.90;;;;;;5136282;27;20039;-74
2023/05/27 00:19:40;;;;;;;13.02;2.35;;;10.20;99.90;;;;;;5136295;27;20524;-75
2023/05/27 00:22:08;;;;;;;10.32;2.35;;;10.20;99.90;;;;;;5136533;27;20050;-74
2023/05/27 00:24:39;;;;;;;13.65;2.97;;;10.20;99.90;;;;;;5136654;27;20398;-74
2023/05/27 00:27:09;;;;;;;13.43;2.60;;;10.20;99.90;;;;;;5136447;27;20051;-74
2023/05/27 00:29:35;;;;;;;11.27;2.53;;;10.20;99.90;;;;;;5135949;27;20051;-75
2023/05/27 00:32:02;;;;;;;16.17;2.97;;;10.20;99.90;;;;;;5136110;27;20505;-75
2023/05/27 00:34:29;;;;;;;12.25;2.30;;;10.20;99.90;;;;;;5136071;27;20047;-74
2023/05/27 00:36:54;;;;;;;12.68;2.72;;;10.20;99.90;;;;;;5136104;27;20122;-75
2023/05/27 00:39:20;;;;;;;12.73;2.75;;;10.10;99.90;;;;;;5136098;27;20137;-74
2023/05/27 00:41:49;;;;;;;10.35;2.40;;;10.20;99.90;;;;;;5136268;27;20047;-74
2023/05/27 00:44:15;;;;;;;11.77;3.05;;;10.20;99.90;;;;;;5135763;27;20061;-74
2023/05/27 00:46:40;;;;;;;15.00;2.78;;;10.30;99.90;;;;;;5135745;27;20039;-75
2023/05/27 00:49:06;;;;;;;15.35;2.92;;;10.30;99.90;;;;;;5135038;27;20043;-75
2023/05/27 00:51:32;;;;;;;11.93;2.72;;;10.30;99.90;;;;;;5135807;27;20042;-74
2023/05/27 00:53:58;;;;;;;12.43;3.10;;;10.30;99.90;;;;;;5135741;27;20474;-75
2023/05/27 00:56:25;;;;;;;12.10;2.85;;;10.30;99.90;;;;;;5135730;27;20123;-74
2023/05/27 00:58:51;;;;;;;14.63;2.78;;;10.40;99.90;;;;;;5135531;27;20051;-75
2023/05/27 01:01:19;;;;;;;11.07;2.72;;;10.40;99.90;;;;;;5135835;27;20107;-75
2023/05/27 01:03:45;;;;;;;11.75;2.72;;;10.40;99.90;;;;;;5136730;27;20059;-75
2023/05/27 01:06:43;;;;;;;11.90;2.40;;;10.40;99.90;;;;;;5135437;27;20501;-74
2023/05/27 01:09:20;;;;;;;8.57;2.97;;;10.40;99.90;;;;;;5135297;27;20394;-75
2023/05/27 01:12:31;;;;;;;12.25;2.92;;;10.40;99.90;;;;;;5135391;27;20039;-74
2023/05/27 01:14:58;;;;;;;16.95;2.92;;;10.40;99.90;;;;;;5135656;27;20039;-75
2023/05/27 01:17:26;;;;;;;12.95;2.78;;;10.40;99.90;;;;;;5135087;27;20050;-75
2023/05/27 01:19:53;;;;;;;15.15;3.45;;;10.40;99.90;;;;;;5136605;27;20047;-75
2023/05/27 01:22:20;;;;;;;12.40;2.85;;;10.40;99.90;;;;;;5136315;27;20043;-74
2023/05/27 01:24:46;;;;;;;12.13;3.28;;;10.40;99.90;;;;;;5135153;27;20543;-74
2023/05/27 01:27:12;;;;;;;9.02;2.67;;;10.40;99.90;;;;;;5135092;27;20039;-75
2023/05/27 01:29:42;;;;;;;14.77;2.85;;;10.40;99.90;;;;;;5135030;27;20043;-74
2023/05/27 01:32:14;;;;;;;15.02;3.70;;;10.40;99.90;;;;;;5134898;27;20043;-75
2023/05/27 01:35:04;;;;;;;12.55;3.00;;;10.40;99.90;;;;;;5134783;27;20428;-75
2023/05/27 01:37:35;;;;;;;15.07;3.03;;;10.40;99.90;;;;;;5134787;27;20444;-74
2023/05/27 01:40:04;;;;;;;15.60;3.58;;;10.40;99.90;;;;;;5135016;27;20051;-74
2023/05/27 01:42:30;;;;;;;16.52;3.25;;;10.40;99.90;;;;;;5134659;27;20075;-74
2023/05/27 01:44:57;;;;;;;19.52;3.95;;;10.30;99.90;;;;;;5134567;27;20050;-74
2023/05/27 01:47:23;;;;;;;11.85;3.50;;;10.30;99.90;;;;;;5136049;27;20043;-74
2023/05/27 01:49:48;;;;;;;10.15;2.65;;;10.30;99.90;;;;;;5135923;27;20092;-74
2023/05/27 01:52:14;;;;;;;17.65;3.30;;;10.40;99.90;;;;;;5135884;27;20115;-74
2023/05/27 01:54:42;;;;;;;19.45;3.58;;;10.40;99.90;;;;;;5134388;27;20089;-74
2023/05/27 01:57:08;;;;;;;10.88;2.92;;;10.40;99.90;;;;;;5134625;27;20136;-75
2023/05/27 01:59:34;;;;;;;14.05;3.70;;;10.40;99.90;;;;;;5134326;27;20043;-74
2023/05/27 02:01:59;;;;;;;12.38;3.33;;;10.40;99.90;;;;;;5135585;27;20039;-75
2023/05/27 02:04:25;;;;;;;13.23;3.30;;;10.30;99.90;;;;;;5134404;27;20517;-75
2023/05/27 02:06:51;;;;;;;15.18;4.13;;;10.30;99.90;;;;;;5134396;27;20047;-74
2023/05/27 02:09:17;;;;;;;13.20;3.35;;;10.30;99.90;;;;;;5135691;27;20043;-74
2023/05/27 02:11:42;;;;;;;12.27;3.25;;;10.30;99.90;;;;;;5134177;27;20062;-74
2023/05/27 02:14:08;;;;;;;15.23;3.20;;;10.30;99.90;;;;;;5134441;27;20051;-75
2023/05/27 02:16:34;;;;;;;12.23;3.08;;;10.30;99.90;;;;;;5134136;27;20035;-74
2023/05/27 02:19:04;;;;;;;10.50;3.00;;;10.40;99.90;;;;;;5133940;27;20092;-75
2023/05/27 02:21:30;;;;;;;10.80;2.65;;;10.30;99.90;;;;;;5134051;27;20534;-75
2023/05/27 02:23:56;;;;;;;15.90;3.30;;;10.30;99.90;;;;;;5133885;27;20043;-74
2023/05/27 02:26:22;;;;;;;11.60;2.92;;;10.30;99.90;;;;;;5120791;27;20051;-74
2023/05/27 02:28:47;;;;;;;13.75;2.42;;;10.30;99.90;;;;;;5134083;27;20049;-75
2023/05/27 02:31:13;;;;;;;14.25;2.83;;;10.20;99.90;;;;;;5133889;27;20428;-74
2023/05/27 02:33:39;;;;;;;15.20;2.83;;;10.20;99.90;;;;;;5134069;27;20452;-74
2023/05/27 02:36:06;;;;;;;9.90;2.80;;;10.20;99.90;;;;;;5134152;27;20420;-74
2023/05/27 02:38:32;;;;;;;11.07;2.63;;;10.20;99.90;;;;;;5133780;27;20039;-74
2023/05/27 02:40:57;;;;;;;8.48;2.88;;;10.20;99.90;;;;;;5134816;27;20043;-74
2023/05/27 02:43:23;;;;;;;16.33;3.03;;;10.20;99.90;;;;;;5135099;27;20039;-74
2023/05/27 02:45:49;;;;;;;9.82;3.22;;;10.10;99.90;;;;;;5133596;27;20043;-74
2023/05/27 02:48:14;;;;;;;12.15;3.22;;;10.10;99.90;;;;;;5134864;27;20043;-74
2023/05/27 02:50:40;;;;;;;12.68;3.83;;;10.10;99.90;;;;;;5134798;27;20047;-74
2023/05/27 02:53:08;;;;;;;14.95;3.33;;;10.10;99.90;;;;;;5133603;27;20113;-75
2023/05/27 02:55:34;;;;;;;15.43;3.67;;;10.10;99.90;;;;;;5133424;27;20058;-75
2023/05/27 02:58:04;;;;;;;16.02;4.00;;;10.10;99.90;;;;;;5133278;27;20104;-75
2023/05/27 03:00:31;;;;;;;11.85;3.50;;;10.10;99.90;;;;;;5133666;27;20461;-76
2023/05/27 03:02:56;;;;;;;9.77;3.05;;;10.10;99.90;;;;;;5133047;27;20047;-75
2023/05/27 03:05:22;;;;;;;13.85;3.55;;;10.10;99.90;;;;;;5133381;27;20139;-75
2023/05/27 03:07:48;;;;;;;12.35;3.20;;;10.20;99.90;;;;;;5133213;27;20035;-75
2023/05/27 03:10:14;;;;;;;16.00;4.18;;;10.20;99.90;;;;;;5133216;28;20054;-75
2023/05/27 03:12:39;;;;;;;15.00;3.38;;;10.20;99.90;;;;;;5132923;27;20043;-74
2023/05/27 03:15:06;;;;;;;16.10;3.83;;;10.20;99.90;;;;;;5134414;27;20066;-75
2023/05/27 03:17:33;;;;;;;16.05;3.50;;;10.20;99.90;;;;;;5133177;28;20043;-75
2023/05/27 03:19:58;;;;;;;16.92;3.92;;;10.20;99.90;;;;;;5132546;28;20054;-75
2023/05/27 03:22:24;;;;;;;11.05;3.42;;;10.10;99.90;;;;;;5131865;28;20043;-74
2023/05/27 03:24:50;;;;;;;18.98;3.90;;;10.10;99.90;;;;;;5133562;27;20035;-74
2023/05/27 03:27:16;;;;;;;12.18;3.25;;;10.20;99.90;;;;;;5132943;28;20074;-74
2023/05/27 03:29:41;;;;;;;16.08;4.03;;;10.10;99.90;;;;;;5132856;28;20050;-74
2023/05/27 03:32:07;;;;;;;16.45;4.07;;;10.10;99.90;;;;;;5134385;27;20112;-74
2023/05/27 03:34:33;;;;;;;13.40;3.67;;;10.10;99.90;;;;;;5133090;28;20047;-74
2023/05/27 03:36:58;;;;;;;12.18;3.80;;;10.10;99.90;;;;;;5132802;28;20386;-74
2023/05/27 03:39:24;;;;;;;18.65;4.05;;;10.10;99.90;;;;;;5134253;27;20088;-74
2023/05/27 03:41:50;;;;;;;15.05;4.05;;;10.00;99.90;;;;;;5133053;28;20436;-78
2023/05/27 03:44:15;;;;;;;17.88;4.32;;;10.00;99.90;;;;;;5132604;28;20199;-77
2023/05/27 03:46:41;;;;;;;17.10;4.20;;;10.00;99.90;;;;;;5132732;28;20043;-77
2023/05/27 03:49:13;;;;;;;13.90;4.55;;;10.00;99.90;;;;;;5132648;28;20133;-77
2023/05/27 03:51:38;;;;;;;14.70;3.80;;;10.00;99.90;;;;;;5134167;27;20043;-78
2023/05/27 03:54:04;;;;;;;14.10;4.50;;;10.00;99.90;;;;;;5132681;28;20039;-77
2023/05/27 03:56:30;;;;;;;12.88;3.55;;;10.00;99.90;;;;;;5133903;27;20039;-77
2023/05/27 03:58:56;;;;;;;16.20;4.07;;;10.00;99.90;;;;;;5132733;28;20521;-78
2023/05/27 04:01:22;;;;;;;13.50;4.47;;;10.00;99.90;;;;;;5132972;28;20047;-78
2023/05/27 04:03:48;;;;;;;14.02;4.07;;;10.00;99.90;;;;;;5132485;28;20456;-78
2023/05/27 04:06:15;;;;;;;15.68;4.45;;;10.00;99.90;;;;;;5132929;28;20094;-78
2023/05/27 04:08:41;;;;;;;14.48;4.28;;;10.00;99.90;;;;;;5132878;28;20051;-77
2023/05/27 04:11:09;;;;;;;14.45;4.32;;;10.00;99.90;;;;;;5132512;28;20049;-78
2023/05/27 04:13:35;;;;;;;14.10;4.15;;;10.00;99.90;;;;;;5132565;28;20045;-78
2023/05/27 04:16:01;;;;;;;13.70;4.07;;;10.00;99.90;;;;;;5132744;28;20138;-77
2023/05/27 04:18:26;;;;;;;16.40;4.70;;;10.00;99.90;;;;;;5132583;28;20046;-77
2023/05/27 04:20:52;;;;;;;12.70;4.85;;;10.00;99.90;;;;;;5132382;28;20119;-78
2023/05/27 04:23:18;;;;;;;21.17;4.30;;;9.90;99.90;;;;;;5132435;27;20039;-77
2023/05/27 04:25:44;;;;;;;16.77;4.47;;;10.00;99.90;;;;;;5137516;27;20039;-76
2023/05/27 04:28:09;;;;;;;14.13;4.10;;;10.00;99.90;;;;;;5137249;27;20036;-77
2023/05/27 04:30:35;;;;;;;16.65;4.35;;;10.00;99.90;;;;;;5136195;27;20091;-78
2023/05/27 04:33:02;;;;;;;14.25;3.55;;;10.10;99.90;;;;;;5137004;27;20054;-78
2023/05/27 04:35:30;;;;;;;10.70;3.75;;;10.10;99.90;;;;;;5135906;27;20043;-78
2023/05/27 04:37:58;;;;;;;15.52;3.80;;;10.10;99.90;;;;;;5135763;27;20061;-79
2023/05/27 04:40:24;;;;;;;17.50;3.92;;;10.10;99.90;;;;;;5135734;27;20047;-77
2023/05/27 04:42:50;;;;;;;15.48;3.70;;;10.20;99.90;;;;;;5136046;27;20049;-78
2023/05/27 04:45:16;;;;;;;16.30;4.45;;;10.20;99.90;;;;;;5136937;27;20047;-79
2023/05/27 04:47:42;;;;;;;14.55;3.60;;;10.30;99.90;;;;;;5135638;27;20040;-78
2023/05/27 04:50:10;;;;;;;11.60;3.47;;;10.30;99.90;;;;;;5135598;27;20043;-77
2023/05/27 04:52:41;;;;;;;17.80;4.70;;;10.30;99.90;;;;;;5135727;27;20046;-77
2023/05/27 04:55:08;;;;;;;13.95;3.75;;;10.40;99.90;;;;;;5136772;27;20360;-77
2023/05/27 04:57:35;;;;;;;16.13;4.25;;;10.40;99.90;;;;;;5135695;27;20406;-77
2023/05/27 05:02:35;;;;;;;17.92;4.00;;;10.60;99.90;;;;;;5135188;27;20495;-77
2023/05/27 05:05:14;;;;;;;14.48;3.78;;;10.60;99.90;;;;;;5136736;27;20104;-77
2023/05/27 05:07:41;;;;;;;11.38;3.70;;;10.60;99.90;;;;;;5135205;27;20120;-77
2023/05/27 05:10:11;;;;;;;15.93;3.85;;;10.70;99.90;;;;;;5135126;27;20402;-75
2023/05/27 05:12:37;;;;;;;15.98;3.70;;;10.70;99.90;;;;;;5135092;27;20447;-74
2023/05/27 05:15:04;;;;;;;12.45;3.92;;;10.80;99.90;;;;;;5135328;27;20046;-74
2023/05/27 05:17:30;;;;;;;20.08;5.50;;;10.80;99.90;;;;;;5135227;27;20042;-75
2023/05/27 05:19:56;;;;;;;17.23;3.80;;;10.90;99.90;;;;;;5134904;27;20047;-78
2023/05/27 05:22:24;;;;;;;20.33;4.88;;;10.90;99.90;;;;;;5134945;27;20039;-77
2023/05/27 05:24:50;;;;;;;14.23;4.45;;;10.90;99.90;;;;;;5135277;27;20046;-78
2023/05/27 05:27:15;;;;;;;17.60;4.40;;;11.00;99.90;;;;;;5134769;27;20055;-78
2023/05/27 05:29:42;;;;;;;15.18;5.15;;;11.00;99.90;;;;;;5135008;27;20525;-79
2023/05/27 05:32:11;;;;;;;16.17;4.63;;;11.10;99.90;;;;;;5134736;27;20046;-79
2023/05/27 05:34:39;;;;;;;12.32;4.07;;;11.20;99.90;;;;;;5134320;27;20051;-79
2023/05/27 05:37:06;;;;;;;18.50;4.68;;;11.20;99.90;;;;;;5134748;27;20100;-78
2023/05/27 05:39:32;;;;;;;20.35;4.68;;;11.20;99.90;;;;;;5135717;27;20074;-78
2023/05/27 05:41:58;;;;;;;11.18;4.20;;;11.20;99.90;;;;;;5134469;27;20047;-78
2023/05/27 05:44:25;;;;;;;17.52;4.35;;;11.30;99.90;;;;;;5134554;27;20053;-77
2023/05/27 05:46:51;;;;;;;18.75;4.90;;;11.30;99.90;;;;;;5135984;27;20094;-77
2023/05/27 05:49:19;;;;;;;16.10;4.53;;;11.20;99.90;;;;;;5134805;27;20047;-75
2023/05/27 05:51:44;;;;;;;14.65;4.68;;;11.30;99.90;;;;;;5134322;27;20108;-77
2023/05/27 05:54:10;;;;;;;16.05;4.32;;;11.40;99.90;;;;;;5134450;27;20047;-77
2023/05/27 05:56:36;;;;;;;23.48;4.93;;;11.50;99.90;;;;;;5134426;27;20360;-77
2023/05/27 05:59:02;;;;;;;14.75;4.57;;;11.60;99.90;;;;;;5135415;27;20570;-77
2023/05/27 06:01:27;;;;;;;16.73;3.97;;;11.60;99.90;;;;;;5134228;27;20050;-76
2023/05/27 06:03:54;;;;;;;17.45;4.95;;;11.80;99.90;;;;;;5135287;27;20145;-76
2023/05/27 06:06:20;;;;;;;13.60;4.32;;;11.80;99.90;;;;;;5134040;27;20408;-76
2023/05/27 06:08:52;;;;;;;18.50;4.68;;;12.00;99.90;;;;;;5135169;27;20498;-76
2023/05/27 06:11:17;;;;;;;23.35;5.03;;;12.20;99.90;;;;;;5134352;27;20051;-77
2023/05/27 06:13:43;;;;;;;17.75;4.90;;;12.40;99.90;;;;;;5133980;27;20063;-77
2023/05/27 06:16:09;;;;;;;17.45;4.95;;;12.60;99.90;;;;;;5134125;27;20520;-77
2023/05/27 06:18:34;;;;;;;16.10;4.43;;;12.80;99.90;;;;;;5133859;27;20107;-78
2023/05/27 06:21:00;;;;;;;11.93;4.30;;;12.80;99.90;;;;;;5133661;27;20100;-79
2023/05/27 06:23:26;;;;;;;17.80;4.63;;;12.80;99.90;;;;;;5133849;27;20062;-79
2023/05/27 06:25:51;;;;;;;16.08;4.07;;;13.10;99.90;;;;;;5133929;27;20432;-79
2023/05/27 06:28:17;;;;;;;13.57;4.40;;;13.40;99.90;;;;;;5135093;27;20455;-77
2023/05/27 06:30:43;;;;;;;16.17;4.55;;;13.40;99.90;;;;;;5126811;27;20081;-74
2023/05/27 06:33:08;;;;;;;18.60;3.90;;;13.50;99.90;;;;;;5115787;27;20074;-74
2023/05/27 06:35:34;;;;;;;14.68;4.40;;;13.70;99.90;;;;;;5113011;28;20130;-75
2023/05/27 06:38:00;;;;;;;13.48;5.65;;;13.80;99.90;;;;;;5112759;28;20096;-75
2023/05/27 06:40:26;;;;;;;22.92;5.45;;;14.00;99.90;;;;;;5112544;28;20391;-74
2023/05/27 06:42:52;;;;;;;16.10;4.25;;;13.90;99.90;;;;;;5112732;28;20050;-75
2023/05/27 06:45:18;;;;;;;18.70;5.45;;;14.00;99.90;;;;;;5112420;28;20051;-74
2023/05/27 06:47:44;;;;;;;11.95;3.97;;;13.80;99.90;;;;;;5112005;28;20039;-73
2023/05/27 06:50:12;;;;;;;22.00;5.07;;;13.70;99.90;;;;;;5112446;28;20048;-73
2023/05/27 06:52:38;;;;;;;15.25;4.53;;;13.60;99.90;;;;;;5112450;28;20115;-73
2023/05/27 06:55:04;;;;;;;16.80;4.97;;;13.70;99.90;;;;;;5112464;28;20479;-73
2023/05/27 06:57:30;;;;;;;11.70;3.97;;;13.90;99.90;;;;;;5112257;28;20040;-74
2023/05/27 06:59:58;;;;;;;18.13;5.15;;;13.60;99.90;;;;;;5112127;28;20073;-73
2023/05/27 07:02:30;;;;;;;24.83;5.65;;;13.60;99.90;;;;;;5113561;28;20047;-73
2023/05/27 07:04:56;;;;;;;15.43;4.80;;;13.50;99.90;;;;;;5112044;28;20064;-74
2023/05/27 07:07:22;;;;;;;19.50;4.88;;;13.70;99.90;;;;;;5112241;28;20043;-74
2023/05/27 07:09:47;;;;;;;12.55;4.43;;;13.80;99.90;;;;;;5113746;28;20058;-74
2023/05/27 07:12:13;;;;;;;16.40;4.63;;;13.70;99.90;;;;;;5122975;28;20055;-74
2023/05/27 07:14:38;;;;;;;19.25;4.72;;;13.80;99.90;;;;;;5132837;28;20409;-77
2023/05/27 07:17:06;;;;;;;13.63;4.20;;;13.60;99.90;;;;;;5132450;28;20039;-74
2023/05/27 07:19:32;;;;;;;17.95;5.13;;;13.60;99.90;;;;;;5132437;28;20486;-81
2023/05/27 07:21:57;;;;;;;21.40;4.90;;;13.70;99.90;;;;;;5132514;28;20035;-80
2023/05/27 07:24:23;;;;;;;21.17;5.22;;;13.70;99.90;;;;;;5132672;28;20043;-80
2023/05/27 07:26:49;;;;;;;13.20;4.70;;;14.10;99.90;;;;;;5134118;27;20051;-81
2023/05/27 07:29:15;;;;;;;13.00;4.20;;;14.10;99.90;;;;;;5132977;28;20043;-82
2023/05/27 07:31:40;;;;;;;16.58;5.07;;;14.20;99.90;;;;;;5132654;28;20506;-81
2023/05/27 07:34:06;;;;;;;16.10;4.55;;;14.10;99.90;;;;;;5132915;28;20036;-81
2023/05/27 07:36:32;;;;;;;16.20;5.07;;;14.10;99.90;;;;;;5134031;27;20035;-80
2023/05/27 07:38:58;;;;;;;12.88;5.15;;;13.90;99.90;;;;;;5132355;28;20055;-80
2023/05/27 07:41:24;;;;;;;15.95;5.07;;;14.00;99.90;;;;;;5132948;28;20040;-81
2023/05/27 07:43:50;;;;;;;19.45;4.80;;;14.30;99.90;;;;;;5132896;28;20051;-82
2023/05/27 07:46:15;;;;;;;20.58;6.65;;;14.20;99.90;;;;;;5132926;28;20066;-82
2023/05/27 07:48:41;;;;;;;19.88;5.22;;;14.30;99.90;;;;;;5132818;28;20135;-82
2023/05/27 07:51:06;;;;;;;17.27;5.05;;;14.30;99.90;;;;;;5132455;28;20486;-80
2023/05/27 07:53:32;;;;;;;17.90;4.72;;;14.20;99.90;;;;;;5132550;28;20138;-79
2023/05/27 07:55:58;;;;;;;22.73;5.80;;;14.40;99.90;;;;;;5133854;27;20035;-79
2023/05/27 07:58:23;;;;;;;19.08;5.35;;;14.50;99.90;;;;;;5135503;27;20154;-80
2023/05/27 08:00:49;;;;;;;18.63;5.10;;;14.60;99.90;;;;;;5137991;27;20043;-81
2023/05/27 08:03:15;;;;;;;16.63;5.32;;;14.80;99.90;;;;;;5136080;27;20483;-79
2023/05/27 08:05:42;;;;;;;19.58;5.30;;;14.90;99.90;;;;;;5136203;27;20062;-80
2023/05/27 08:08:08;;;;;;;19.90;5.35;;;14.90;99.90;;;;;;5137673;27;20043;-80
2023/05/27 08:10:33;;;;;;;19.23;5.32;;;14.70;99.90;;;;;;5136200;27;20038;-80
2023/05/27 08:12:59;;;;;;;16.70;4.97;;;15.00;99.90;;;;;;5136211;27;20050;-80
2023/05/27 08:15:25;;;;;;;16.52;5.15;;;14.90;99.90;;;;;;5136149;27;20039;-79
2023/05/27 08:17:50;;;;;;;15.15;4.80;;;15.10;99.90;;;;;;5135860;27;20099;-80
2023/05/27 08:20:16;;;;;;;18.33;4.85;;;15.30;99.90;;;;;;5136372;27;20051;-80
2023/05/27 08:22:42;;;;;;;18.05;5.28;;;15.40;99.90;;;;;;5136039;27;20371;-79
2023/05/27 08:25:08;;;;;;;16.30;4.97;;;15.50;99.90;;;;;;5135973;27;20047;-79
2023/05/27 08:27:53;;;;;;;19.42;4.93;;;15.60;99.90;;;;;;5135959;27;20041;-79
2023/05/27 08:30:19;;;;;;;20.33;5.05;;;15.80;99.90;;;;;;5135736;27;20039;-80
2023/05/27 08:32:45;;;;;;;17.88;5.10;;;15.50;99.90;;;;;;5135858;27;20054;-80
2023/05/27 08:35:11;;;;;;;17.85;5.50;;;15.80;99.90;;;;;;5135961;27;20201;-80
2023/05/27 08:37:38;;;;;;;17.50;5.57;;;15.50;99.90;;;;;;5137079;27;20043;-80
2023/05/27 08:40:06;;;;;;;15.15;5.93;;;15.50;99.90;;;;;;5135130;27;20176;-79
2023/05/27 08:42:33;;;;;;;21.35;5.60;;;15.60;99.90;;;;;;5135336;27;20064;-80
2023/05/27 08:44:59;;;;;;;18.73;5.28;;;15.70;99.90;;;;;;5135194;27;20061;-79
2023/05/27 08:47:28;;;;;;;22.00;6.00;;;16.00;99.90;;;;;;5135146;27;20042;-80
2023/05/27 08:49:54;;;;;;;23.35;5.75;;;16.10;99.90;;;;;;5135173;27;20065;-79
2023/05/27 08:52:25;;;;;;;22.88;5.90;;;15.90;99.90;;;;;;5136439;27;20088;-79
2023/05/27 08:54:52;;;;;;;18.98;5.80;;;16.30;99.90;;;;;;5116379;28;20040;-80
2023/05/27 08:57:24;;;;;;;20.45;5.60;;;16.10;99.90;;;;;;5114806;28;20039;-80
2023/05/27 08:59:50;;;;;;;19.50;5.30;;;16.10;99.90;;;;;;5114680;28;20058;-78
2023/05/27 09:02:20;;;;;;;16.63;4.80;;;16.10;99.90;;;;;;5114893;28;20062;-80
2023/05/27 09:04:49;;;;;;;21.73;5.70;;;16.20;99.90;;;;;;5114795;28;20052;-80
2023/05/27 09:07:15;;;;;;;19.20;5.50;;;16.60;99.90;;;;;;5114804;28;20058;-80
2023/05/27 09:09:40;;;;;;;26.42;5.93;;;16.60;99.90;;;;;;5113958;28;20051;-80
2023/05/27 09:12:09;;;;;;;19.95;5.97;;;16.20;99.90;;;;;;5114445;28;20052;-79
2023/05/27 09:14:39;;;;;;;19.98;5.63;;;16.80;99.90;;;;;;5114419;28;20131;-80
2023/05/27 09:17:06;;;;;;;21.45;6.13;;;16.90;99.90;;;;;;5114593;28;20048;-81
2023/05/27 09:19:32;;;;;;;18.83;4.95;;;16.50;99.90;;;;;;5114311;28;20141;-81
2023/05/27 09:22:01;;;;;;;18.95;4.95;;;16.20;99.90;;;;;;5114188;28;20043;-81
2023/05/27 09:24:27;;;;;;;19.42;5.25;;;16.60;99.90;;;;;;5114370;28;20070;-82
2023/05/27 09:26:54;;;;;;;19.05;5.65;;;16.70;99.90;;;;;;5114430;28;20513;-81
2023/05/27 09:29:22;;;;;;;20.02;5.60;;;17.10;99.90;;;;;;5148555;27;20505;-81
2023/05/27 09:31:57;;;;;;;16.02;5.70;;;17.30;99.90;;;;;;5114144;28;20039;-81
2023/05/27 09:34:23;;;;;;;21.80;6.55;;;17.20;99.90;;;;;;5113978;28;20051;-81
2023/05/27 09:36:50;;;;;;;17.75;5.82;;;16.90;99.90;;;;;;5114270;28;20475;-81
2023/05/27 09:39:22;;;;;;;18.25;5.28;;;17.20;99.90;;;;;;5113933;28;20048;-83
2023/05/27 09:41:53;;;;;;;17.33;6.45;;;17.50;99.90;;;;;;5113844;28;20475;-83
2023/05/27 09:44:19;;;;;;;18.65;5.20;;;17.80;99.90;;;;;;5114242;28;20086;-82
2023/05/27 09:46:48;;;;;;;24.95;6.13;;;17.70;99.90;;;;;;5113743;28;20040;-79
2023/05/27 09:49:18;;;;;;;22.02;6.30;;;17.90;99.90;;;;;;5115023;28;20048;-80
2023/05/27 09:51:46;;;;;;;19.20;5.40;;;18.10;99.90;;;;;;5113583;28;20097;-78
2023/05/27 09:54:18;;;;;;;17.45;5.00;;;18.00;99.90;;;;;;5148062;27;20448;-81
2023/05/27 09:56:45;;;;;;;26.05;6.65;;;18.00;99.90;;;;;;5114945;28;20399;-85
2023/05/27 09:59:14;;;;;;;18.83;6.03;;;17.60;99.90;;;;;;5114962;28;20092;-81
2023/05/27 10:01:40;;;;;;;20.08;5.85;;;17.90;99.90;;;;;;5114855;28;20036;-80
2023/05/27 10:04:07;;;;;;;25.45;6.05;;;17.80;99.90;;;;;;5113154;28;20062;-80
2023/05/27 10:06:33;;;;;;;19.08;5.50;;;18.20;99.90;;;;;;5113365;28;20083;-81
2023/05/27 10:09:01;;;;;;;18.70;5.78;;;18.00;99.90;;;;;;5114643;28;20131;-81
2023/05/27 10:11:37;;;;;;;20.83;5.70;;;17.90;99.90;;;;;;5113613;28;20040;-81
2023/05/27 10:14:04;;;;;;;18.33;5.72;;;18.30;99.90;;;;;;5113822;28;20474;-81
2023/05/27 10:16:29;;;;;;;17.10;5.93;;;18.40;99.90;;;;;;5113657;28;20058;-81
2023/05/27 10:18:58;;;;;;;17.45;5.30;;;18.30;99.90;;;;;;5114483;27;20052;-81
2023/05/27 10:21:27;;;;;;;20.92;5.85;;;18.70;99.90;;;;;;5113948;28;20116;-83
2023/05/27 10:23:57;;;;;;;19.65;5.95;;;18.30;99.90;;;;;;5114782;28;20044;-83
2023/05/27 10:26:38;;;;;;;20.00;6.18;;;18.30;99.90;;;;;;5114404;28;20398;-83
2023/05/27 10:29:12;;;;;;;20.85;5.97;;;18.00;99.90;;;;;;5114665;28;20039;-82
2023/05/27 10:32:04;;;;;;;20.55;5.38;;;17.90;99.90;;;;;;5114712;28;20172;-81
2023/05/27 10:34:37;;;;;;;19.20;5.20;;;18.20;99.90;;;;;;5114100;28;20043;-82
2023/05/27 10:37:03;;;;;;;;;;;17.90;99.90;;;;;;5113502;28;20047;-82
2023/05/27 10:39:29;;;;;;;15.13;5.28;;;18.10;99.90;;;;;;5112803;28;19919;-81
2023/05/27 10:41:59;;;;;;;18.83;5.47;;;18.20;99.90;;;;;;5113013;28;20036;-82
2023/05/27 10:44:36;;;;;;;16.77;5.43;;;18.60;99.90;;;;;;5114200;28;20158;-81
2023/05/27 10:47:05;;;;;;;15.85;5.50;;;18.70;99.90;;;;;;5113159;28;20039;-81
2023/05/27 10:49:35;;;;;;;17.92;5.47;;;18.80;99.90;;;;;;5113213;28;20048;-82
2023/05/27 10:52:15;;;;;;;18.98;5.93;;;18.60;99.90;;;;;;5112823;28;20047;-82
2023/05/27 10:54:43;;;;;;;14.43;4.95;;;18.60;99.90;;;;;;5112903;28;20058;-83
2023/05/27 10:57:12;;;;;;;16.38;5.65;;;18.40;99.90;;;;;;5114322;28;20036;-83
2023/05/27 11:00:00;;;;;;;20.73;5.78;;;18.20;99.90;;;;;;5112835;28;20068;-83
2023/05/27 11:02:36;;;;;;;23.35;6.05;;;17.80;99.90;;;;;;5112507;28;20156;-82
2023/05/27 11:05:11;;;;;;;24.70;5.05;;;17.80;99.90;;;;;;5114113;28;20051;-83
2023/05/27 11:07:40;;;;;;;19.50;4.97;;;18.10;99.90;;;;;;5112740;28;20043;-83
2023/05/27 11:10:07;;;;;;;15.98;5.72;;;18.20;99.90;;;;;;5112786;28;20039;-83
2023/05/27 11:12:33;;;;;;;18.58;6.05;;;18.20;99.90;;;;;;5112758;28;20047;-81
2023/05/27 11:14:59;;;;;;;20.05;6.45;;;18.40;99.90;;;;;;5113772;28;20067;-82
2023/05/27 11:17:28;;;;;;;18.30;4.95;;;18.30;99.90;;;;;;5112534;28;20044;-83
2023/05/27 11:19:54;;;;;;;22.95;6.13;;;18.60;99.90;;;;;;5112470;28;20059;-83
2023/05/27 11:22:21;;;;;;;20.05;5.18;;;18.60;99.90;;;;;;5112552;28;20200;-82
2023/05/27 11:25:00;;;;;;;19.08;5.07;;;17.80;99.90;;;;;;5112687;28;20055;-88
2023/05/27 11:27:38;;;;;;;16.48;5.20;;;17.40;99.90;;;;;;5113689;28;20035;-84
2023/05/27 11:30:11;;;;;;;21.25;5.10;;;17.10;99.90;;;;;;5113719;28;20048;-83
2023/05/27 11:32:38;;;;;;;23.60;5.90;;;17.20;99.90;;;;;;5112899;28;20048;-82
2023/05/27 11:35:05;;;;;;;19.73;6.18;;;17.00;99.90;;;;;;5116838;28;20051;-82
2023/05/27 11:37:35;;;;;;;24.90;6.40;;;17.40;99.90;;;;;;5116659;28;20043;-83
2023/05/27 11:40:09;;;;;;;22.65;5.10;;;17.40;99.90;;;;;;5117695;28;20047;-81
2023/05/27 11:42:35;;;;;;;23.92;6.60;;;17.40;99.90;;;;;;5116695;28;20046;-87
2023/05/27 11:45:03;;;;;;;20.95;5.70;;;17.80;99.90;;;;;;5117522;28;20039;-81
2023/05/27 11:47:29;;;;;;;19.88;6.00;;;17.40;99.90;;;;;;5116556;28;20055;-81
2023/05/27 11:49:55;;;;;;;19.15;5.15;;;17.80;99.90;;;;;;5116253;28;20609;-81
2023/05/27 11:52:25;;;;;;;18.65;5.43;;;17.80;99.90;;;;;;5116102;28;20538;-81
2023/05/27 11:54:51;;;;;;;28.90;6.68;;;17.80;99.90;;;;;;5116426;28;20123;-83
2023/05/27 11:57:17;;;;;;;20.15;5.25;;;17.90;99.90;;;;;;5117573;28;20176;-83
2023/05/27 11:59:42;;;;;;;24.73;6.18;;;18.50;99.90;;;;;;5116027;28;20382;-83
2023/05/27 12:02:08;;;;;;;24.65;5.80;;;18.50;99.90;;;;;;5116182;28;20039;-82
2023/05/27 12:04:35;;;;;;;20.92;5.68;;;17.80;99.90;;;;;;5115968;28;20134;-82
2023/05/27 12:07:02;;;;;;;18.50;5.28;;;17.80;99.90;;;;;;5115869;28;20436;-83
2023/05/27 12:09:28;;;;;;;22.52;5.90;;;17.90;99.90;;;;;;5116045;28;20035;-82
2023/05/27 12:11:54;;;;;;;21.90;5.72;;;18.20;99.90;;;;;;5115835;28;20085;-84
2023/05/27 12:14:21;;;;;;;24.33;5.85;;;18.30;99.90;;;;;;5117154;28;20044;-83
2023/05/27 12:16:47;;;;;;;23.10;6.45;;;18.20;99.90;;;;;;5115684;28;20127;-86
2023/05/27 12:19:13;;;;;;;17.35;5.57;;;18.00;99.90;;;;;;5115883;28;20119;-85
2023/05/27 12:21:38;;;;;;;27.88;6.05;;;18.40;99.90;;;;;;5116893;28;20065;-84
2023/05/27 12:24:05;;;;;;;16.02;6.00;;;18.50;99.90;;;;;;5115577;28;20097;-84
2023/05/27 12:26:31;;;;;;;25.70;6.30;;;18.30;99.90;;;;;;5116847;28;20529;-80
2023/05/27 12:28:57;;;;;;;21.42;6.10;;;18.20;99.90;;;;;;5115734;28;20087;-79
2023/05/27 12:31:25;;;;;;;28.05;6.38;;;18.00;99.90;;;;;;5116749;28;20044;-82
2023/05/27 12:33:50;;;;;;;23.25;6.22;;;18.30;99.90;;;;;;5116625;28;20494;-83
2023/05/27 12:36:18;;;;;;;25.42;6.43;;;18.00;99.90;;;;;;5116850;28;20130;-83
2023/05/27 12:38:44;;;;;;;20.83;5.82;;;18.10;99.90;;;;;;5116507;28;20425;-82
2023/05/27 12:41:10;;;;;;;22.55;5.88;;;18.20;99.90;;;;;;5115477;28;20055;-82